createdAt,value
2022-08-07T00:00:03.469Z,24.56
2022-08-07T00:01:44.306Z,24.53
2022-08-07T00:02:41.438Z,24.48
2022-08-07T00:03:49.477Z,24.40
2022-08-07T00:04:51.613Z,24.36
2022-08-07T00:05:54.406Z,24.40
2022-08-07T00:06:56.568Z,24.33
2022-08-07T00:08:04.220Z,24.39
2022-08-07T00:09:16.368Z,24.42
2022-08-07T00:10:27.145Z,24.38
2022-08-07T00:11:33.068Z,24.40
2022-08-07T00:12:35.525Z,24.36
2022-08-07T00:13:58.401Z,24.37
2022-08-07T00:15:01.841Z,24.40
2022-08-07T00:16:06.819Z,24.37
2022-08-07T00:17:09.639Z,24.40
2022-08-07T00:18:19.628Z,24.42
2022-08-07T00:19:25.899Z,24.41
2022-08-07T00:20:29.879Z,24.42
2022-08-07T00:21:57.262Z,24.47
2022-08-07T00:22:58.833Z,24.42
2022-08-07T00:24:01.148Z,24.35
2022-08-07T00:25:05.261Z,24.37
2022-08-07T00:26:18.680Z,24.39
2022-08-07T00:27:52.868Z,24.42
2022-08-07T00:28:56.979Z,24.30
2022-08-07T00:29:59.278Z,24.36
2022-08-07T00:31:12.224Z,24.37
2022-08-07T00:32:15.382Z,24.34
2022-08-07T00:33:17.838Z,24.34
2022-08-07T00:34:19.996Z,24.31
2022-08-07T00:35:24.153Z,24.23
2022-08-07T00:36:26.312Z,24.26
2022-08-07T00:37:48.097Z,24.26
2022-08-07T00:38:50.715Z,24.25
2022-08-07T00:39:56.563Z,24.23
2022-08-07T00:40:59.502Z,24.22
2022-08-07T00:42:05.427Z,24.24
2022-08-07T00:43:12.855Z,24.23
2022-08-07T00:44:33.692Z,24.27
2022-08-07T00:45:35.897Z,24.20
2022-08-07T00:46:38.231Z,24.19
2022-08-07T00:48:09.587Z,24.16
2022-08-07T00:49:04.269Z,24.15
2022-08-07T00:50:19.154Z,24.15
2022-08-07T00:51:58.331Z,24.05
2022-08-07T00:52:53.599Z,24.04
2022-08-07T00:53:56.058Z,24.02
2022-08-07T00:54:58.203Z,23.96
2022-08-07T00:56:03.992Z,23.94
2022-08-07T00:57:11.031Z,23.94
2022-08-07T00:58:14.419Z,23.95
2022-08-07T00:59:17.666Z,23.83
2022-08-07T01:00:23.282Z,23.81
2022-08-07T01:01:26.259Z,23.78
2022-08-07T01:02:29.806Z,23.74
2022-08-07T01:03:55.865Z,23.77
2022-08-07T01:04:54.325Z,23.72
2022-08-07T01:06:01.526Z,23.73
2022-08-07T01:07:04.728Z,23.68
2022-08-07T01:08:09.021Z,23.75
2022-08-07T01:09:11.721Z,23.77
2022-08-07T01:10:33.784Z,23.67
2022-08-07T01:12:23.499Z,23.65
2022-08-07T01:12:59.892Z,23.67
2022-08-07T01:14:03.315Z,23.61
2022-08-07T01:15:11.922Z,23.59
2022-08-07T01:16:30.478Z,23.53
2022-08-07T01:17:35.095Z,23.47
2022-08-07T01:18:38.120Z,23.49
2022-08-07T01:19:42.032Z,23.50
2022-08-07T01:21:22.513Z,23.54
2022-08-07T01:22:29.495Z,23.41
2022-08-07T01:23:39.473Z,23.42
2022-08-07T01:24:47.553Z,23.36
2022-08-07T01:25:55.337Z,23.33
2022-08-07T01:27:00.119Z,23.33
2022-08-07T01:28:02.997Z,23.30
2022-08-07T01:29:06.171Z,23.26
2022-08-07T01:30:10.894Z,23.28
2022-08-07T01:31:15.533Z,23.23
2022-08-07T01:32:22.461Z,23.20
2022-08-07T01:33:47.656Z,23.21
2022-08-07T01:34:51.356Z,23.23
2022-08-07T01:36:06.201Z,23.22
2022-08-07T01:37:13.783Z,23.14
2022-08-07T01:38:24.822Z,23.15
2022-08-07T01:39:40.418Z,23.14
2022-08-07T01:41:00.854Z,23.16
2022-08-07T01:42:37.237Z,23.09
2022-08-07T01:43:26.820Z,23.16
2022-08-07T01:44:37.524Z,23.19
2022-08-07T01:45:40.243Z,23.18
2022-08-07T01:46:49.827Z,23.13
2022-08-07T01:48:19.445Z,23.06
2022-08-07T01:49:16.136Z,23.12
2022-08-07T01:50:29.031Z,23.08
2022-08-07T01:52:02.603Z,23.14
2022-08-07T01:52:58.478Z,23.03
2022-08-07T01:54:12.497Z,23.09
2022-08-07T01:55:28.814Z,23.13
2022-08-07T01:56:49.904Z,23.18
2022-08-07T01:58:05.616Z,23.15
2022-08-07T01:59:23.331Z,23.12
2022-08-07T02:00:29.654Z,23.09
2022-08-07T02:02:01.929Z,23.02
2022-08-07T02:03:21.274Z,23.04
2022-08-07T02:04:40.231Z,22.98
2022-08-07T02:06:08.854Z,22.96
2022-08-07T02:07:50.036Z,22.92
2022-08-07T02:09:01.451Z,22.87
2022-08-07T02:10:08.948Z,22.83
2022-08-07T02:11:30.797Z,22.82
2022-08-07T02:12:46.426Z,22.80
2022-08-07T02:14:02.533Z,22.76
2022-08-07T02:15:08.824Z,22.79
2022-08-07T02:16:14.941Z,22.78
2022-08-07T02:17:27.470Z,22.81
2022-08-07T02:18:33.995Z,22.80
2022-08-07T02:20:05.156Z,22.85
2022-08-07T02:21:08.688Z,22.87
2022-08-07T02:22:25.955Z,22.98
2022-08-07T02:23:30.752Z,23.00
2022-08-07T02:24:39.829Z,23.06
2022-08-07T02:26:31.474Z,23.12
2022-08-07T02:27:14.892Z,23.10
2022-08-07T02:28:25.576Z,23.12
2022-08-07T02:29:34.540Z,23.14
2022-08-07T02:30:48.732Z,23.11
2022-08-07T02:31:54.720Z,23.45
2022-08-07T02:33:00.678Z,23.89
2022-08-07T02:34:11.546Z,24.22
2022-08-07T02:36:29.683Z,24.57
2022-08-07T02:36:50.539Z,24.90
2022-08-07T02:37:53.832Z,25.10
2022-08-07T02:38:59.224Z,25.41
2022-08-07T02:40:29.979Z,25.60
2022-08-07T02:41:37.197Z,25.98
2022-08-07T02:42:42.397Z,26.28
2022-08-07T02:43:48.843Z,26.58
2022-08-07T02:44:55.155Z,26.78
2022-08-07T02:46:07.596Z,26.84
2022-08-07T02:47:13.265Z,26.92
2022-08-07T02:48:26.101Z,26.75
2022-08-07T02:49:58.491Z,27.12
2022-08-07T02:50:56.218Z,27.27
2022-08-07T02:52:01.567Z,27.42
2022-08-07T02:53:10.916Z,27.86
2022-08-07T02:54:16.932Z,27.72
2022-08-07T02:55:28.422Z,28.21
2022-08-07T02:56:48.858Z,28.42
2022-08-07T02:57:54.793Z,28.39
2022-08-07T02:59:04.272Z,28.37
2022-08-07T03:00:11.331Z,28.60
2022-08-07T03:01:18.888Z,28.68
2022-08-07T03:02:54.290Z,29.00
2022-08-07T03:03:58.841Z,28.82
2022-08-07T03:05:09.844Z,29.21
2022-08-07T03:06:16.621Z,29.33
2022-08-07T03:07:43.065Z,29.54
2022-08-07T03:08:52.518Z,29.66
2022-08-07T03:09:55.267Z,29.64
2022-08-07T03:10:58.410Z,29.87
2022-08-07T03:12:14.219Z,30.36
2022-08-07T03:13:29.501Z,30.21
2022-08-07T03:14:52.026Z,30.52
2022-08-07T03:15:58.377Z,29.90
2022-08-07T03:17:05.104Z,29.28
2022-08-07T03:18:08.702Z,28.53
2022-08-07T03:19:13.699Z,28.53
2022-08-07T03:20:17.142Z,27.80
2022-08-07T03:21:20.488Z,27.79
2022-08-07T03:22:29.625Z,27.70
2022-08-07T03:24:18.360Z,27.37
2022-08-07T03:24:57.832Z,27.03
2022-08-07T03:26:02.025Z,27.11
2022-08-07T03:27:08.890Z,26.93
2022-08-07T03:28:38.391Z,26.85
2022-08-07T03:29:51.452Z,26.65
2022-08-07T03:31:19.144Z,26.55
2022-08-07T03:32:37.241Z,26.11
2022-08-07T03:33:43.567Z,26.01
2022-08-07T03:35:16.968Z,25.82
2022-08-07T03:36:14.796Z,25.84
2022-08-07T03:37:21.535Z,25.65
2022-08-07T03:38:33.322Z,25.66
2022-08-07T03:39:56.550Z,25.47
2022-08-07T03:41:02.489Z,25.41
2022-08-07T03:42:07.699Z,25.47
2022-08-07T03:43:14.403Z,25.69
2022-08-07T03:44:34.199Z,25.72
2022-08-07T03:45:43.290Z,25.78
2022-08-07T03:47:13.949Z,25.64
2022-08-07T03:48:12.449Z,25.65
2022-08-07T03:49:14.819Z,25.45
2022-08-07T03:50:22.996Z,25.56
2022-08-07T03:51:47.117Z,25.55
2022-08-07T03:52:56.199Z,25.51
2022-08-07T03:54:32.995Z,25.58
2022-08-07T03:55:22.565Z,25.72
2022-08-07T03:56:32.742Z,25.56
2022-08-07T03:58:34.485Z,25.61
2022-08-07T03:59:09.551Z,25.74
2022-08-07T04:00:17.706Z,25.85
2022-08-07T04:01:28.988Z,26.91
2022-08-07T04:02:31.407Z,28.15
2022-08-07T04:03:38.873Z,28.74
2022-08-07T04:04:52.576Z,29.34
2022-08-07T04:05:58.829Z,29.90
2022-08-07T04:07:16.595Z,30.33
2022-08-07T04:08:22.941Z,31.13
2022-08-07T04:09:29.446Z,31.36
2022-08-07T04:10:54.472Z,31.86
2022-08-07T04:12:26.383Z,32.58
2022-08-07T04:14:10.952Z,32.99
2022-08-07T04:14:59.397Z,33.37
2022-08-07T04:16:04.653Z,33.59
2022-08-07T04:17:16.496Z,33.38
2022-08-07T04:18:58.352Z,33.88
2022-08-07T04:19:52.861Z,33.86
2022-08-07T04:20:59.153Z,33.76
2022-08-07T04:22:12.121Z,34.66
2022-08-07T04:23:19.550Z,34.71
2022-08-07T04:24:33.882Z,34.75
2022-08-07T04:25:42.191Z,35.20
2022-08-07T04:26:47.720Z,35.44
2022-08-07T04:27:59.382Z,35.05
2022-08-07T04:29:07.740Z,34.84
2022-08-07T04:30:21.527Z,35.65
2022-08-07T04:32:03.061Z,35.96
2022-08-07T04:33:15.442Z,35.54
2022-08-07T04:34:24.094Z,36.12
2022-08-07T04:35:38.425Z,36.29
2022-08-07T04:36:45.542Z,37.15
2022-08-07T04:38:03.181Z,36.97
2022-08-07T04:39:10.570Z,37.17
2022-08-07T04:40:13.528Z,37.68
2022-08-07T04:41:19.064Z,37.17
2022-08-07T04:42:28.934Z,37.50
2022-08-07T04:44:09.947Z,37.94
2022-08-07T04:45:03.231Z,37.96
2022-08-07T04:46:35.837Z,37.88
2022-08-07T04:47:56.997Z,38.40
2022-08-07T04:49:18.344Z,38.62
2022-08-07T04:50:39.619Z,39.17
2022-08-07T04:52:00.808Z,38.63
2022-08-07T04:53:39.993Z,38.32
2022-08-07T04:55:15.273Z,38.83
2022-08-07T04:58:11.623Z,38.50
2022-08-07T04:59:17.181Z,38.74
2022-08-07T05:00:18.674Z,38.52
2022-08-07T05:01:43.287Z,39.41
2022-08-07T05:03:17.333Z,40.10
2022-08-07T05:04:50.216Z,39.50
2022-08-07T05:06:19.879Z,39.13
2022-08-07T05:07:48.638Z,39.36
2022-08-07T05:09:01.425Z,39.78
2022-08-07T05:10:16.805Z,39.77
2022-08-07T05:11:56.914Z,39.69
2022-08-07T05:14:44.806Z,39.44
2022-08-07T05:14:52.324Z,39.38
2022-08-07T05:16:00.027Z,39.34
2022-08-07T05:17:11.858Z,40.04
2022-08-07T05:18:21.075Z,39.42
2022-08-07T05:19:44.024Z,39.31
2022-08-07T05:20:52.015Z,39.45
2022-08-07T05:22:01.772Z,39.47
2022-08-07T05:23:20.587Z,39.03
2022-08-07T05:24:40.301Z,39.25
2022-08-07T05:26:11.523Z,39.59
2022-08-07T05:28:02.108Z,39.04
2022-08-07T05:28:40.569Z,39.76
2022-08-07T05:29:50.999Z,39.68
2022-08-07T05:30:57.375Z,40.09
2022-08-07T05:32:02.490Z,40.50
2022-08-07T05:33:09.860Z,40.45
2022-08-07T05:34:15.733Z,40.10
2022-08-07T05:35:33.054Z,41.26
2022-08-07T05:36:39.624Z,41.07
2022-08-07T05:38:08.876Z,42.16
2022-08-07T05:40:05.914Z,41.59
2022-08-07T05:40:50.675Z,41.16
2022-08-07T05:42:01.175Z,41.65
2022-08-07T05:43:06.705Z,41.14
2022-08-07T05:44:14.281Z,41.64
2022-08-07T05:45:46.056Z,40.53
2022-08-07T05:46:51.227Z,41.36
2022-08-07T05:48:02.454Z,41.86
2022-08-07T05:49:14.474Z,41.41
2022-08-07T05:50:24.250Z,42.47
2022-08-07T05:51:31.820Z,41.17
2022-08-07T05:52:35.968Z,42.08
2022-08-07T05:54:09.649Z,41.65
2022-08-07T05:55:10.358Z,42.65
2022-08-07T05:56:20.093Z,41.46
2022-08-07T05:57:37.735Z,41.25
2022-08-07T05:58:52.386Z,41.22
2022-08-07T06:00:01.314Z,41.70
2022-08-07T06:01:16.946Z,41.20
2022-08-07T06:02:30.504Z,41.26
2022-08-07T06:03:57.317Z,41.58
2022-08-07T06:05:06.201Z,41.48
2022-08-07T06:06:09.923Z,41.63
2022-08-07T06:07:23.150Z,41.58
2022-08-07T06:08:44.415Z,40.77
2022-08-07T06:10:05.579Z,41.28
2022-08-07T06:11:09.415Z,40.87
2022-08-07T06:12:12.500Z,40.02
2022-08-07T06:13:18.414Z,39.38
2022-08-07T06:14:28.804Z,39.17
2022-08-07T06:15:38.558Z,40.49
2022-08-07T06:16:50.401Z,41.41
2022-08-07T06:18:02.163Z,40.73
2022-08-07T06:19:06.625Z,40.19
2022-08-07T06:20:25.485Z,40.34
2022-08-07T06:22:16.272Z,39.20
2022-08-07T06:23:25.227Z,39.50
2022-08-07T06:24:52.379Z,38.80
2022-08-07T06:25:54.470Z,39.88
2022-08-07T06:27:03.510Z,41.06
2022-08-07T06:28:14.805Z,40.55
2022-08-07T06:29:17.165Z,41.01
2022-08-07T06:30:24.220Z,40.81
2022-08-07T06:31:49.680Z,41.47
2022-08-07T06:32:56.634Z,40.16
2022-08-07T06:33:59.783Z,39.35
2022-08-07T06:35:10.501Z,39.11
2022-08-07T06:36:34.914Z,39.48
2022-08-07T06:37:44.106Z,38.39
2022-08-07T06:38:58.862Z,38.78
2022-08-07T06:40:16.869Z,39.52
2022-08-07T06:42:01.510Z,40.27
2022-08-07T06:43:26.750Z,39.93
2022-08-07T06:44:44.704Z,40.19
2022-08-07T06:45:58.582Z,39.89
2022-08-07T06:47:10.402Z,40.22
2022-08-07T06:48:15.288Z,39.60
2022-08-07T06:49:20.834Z,38.81
2022-08-07T06:50:23.067Z,39.75
2022-08-07T06:51:33.254Z,40.16
2022-08-07T06:52:45.163Z,40.38
2022-08-07T06:55:27.736Z,41.05
2022-08-07T06:55:31.492Z,39.79
2022-08-07T06:56:49.703Z,40.34
2022-08-07T06:58:02.700Z,40.33
2022-08-07T07:00:13.923Z,41.51
2022-08-07T07:00:44.996Z,41.01
2022-08-07T07:01:53.844Z,41.01
2022-08-07T07:03:08.449Z,40.77
2022-08-07T07:04:32.747Z,40.39
2022-08-07T07:06:03.376Z,41.61
2022-08-07T07:07:01.299Z,41.44
2022-08-07T07:08:06.565Z,41.40
2022-08-07T07:09:25.206Z,40.48
2022-08-07T07:10:35.211Z,39.77
2022-08-07T07:12:08.478Z,39.41
2022-08-07T07:13:16.762Z,38.55
2022-08-07T07:14:56.546Z,38.35
2022-08-07T07:16:07.547Z,38.73
2022-08-07T07:17:16.332Z,39.52
2022-08-07T07:18:37.683Z,39.64
2022-08-07T07:19:58.356Z,39.90
2022-08-07T07:21:13.786Z,41.22
2022-08-07T07:22:36.909Z,41.68
2022-08-07T07:24:10.105Z,42.03
2022-08-07T07:26:33.330Z,42.68
2022-08-07T07:26:38.123Z,41.78
2022-08-07T07:27:56.240Z,42.33
2022-08-07T07:29:39.780Z,41.24
2022-08-07T07:30:41.005Z,42.36
2022-08-07T07:31:49.533Z,42.06
2022-08-07T07:32:52.279Z,41.58
2022-08-07T07:34:03.679Z,41.74
2022-08-07T07:35:08.912Z,42.05
2022-08-07T07:36:12.738Z,42.01
2022-08-07T07:37:21.720Z,42.53
2022-08-07T07:38:40.893Z,42.72
2022-08-07T07:39:54.370Z,40.95
2022-08-07T07:41:02.414Z,42.41
2022-08-07T07:42:13.760Z,42.50
2022-08-07T07:43:47.476Z,42.61
2022-08-07T07:44:49.676Z,41.90
2022-08-07T07:46:40.125Z,41.69
2022-08-07T07:47:23.874Z,41.88
2022-08-07T07:48:36.105Z,41.84
2022-08-07T07:50:33.065Z,41.21
2022-08-07T07:51:02.894Z,41.71
2022-08-07T07:52:13.223Z,41.82
2022-08-07T07:53:25.579Z,41.52
2022-08-07T07:54:29.750Z,42.07
2022-08-07T07:55:37.630Z,42.26
2022-08-07T07:56:52.660Z,42.46
2022-08-07T07:57:58.446Z,43.03
2022-08-07T07:59:08.284Z,41.84
2022-08-07T08:00:21.122Z,41.80
2022-08-07T08:02:05.084Z,41.95
2022-08-07T08:03:04.828Z,41.33
2022-08-07T08:04:11.959Z,41.81
2022-08-07T08:05:18.212Z,41.27
2022-08-07T08:06:26.909Z,40.30
2022-08-07T08:07:35.681Z,40.34
2022-08-07T08:08:48.192Z,41.40
2022-08-07T08:10:05.538Z,41.12
2022-08-07T08:11:16.309Z,40.92
2022-08-07T08:12:51.198Z,40.79
2022-08-07T08:13:53.760Z,40.99
2022-08-07T08:14:58.114Z,40.43
2022-08-07T08:16:03.029Z,40.29
2022-08-07T08:17:55.468Z,40.54
2022-08-07T08:18:32.104Z,40.49
2022-08-07T08:20:17.251Z,40.60
2022-08-07T08:21:02.122Z,39.58
2022-08-07T08:22:32.664Z,39.01
2022-08-07T08:23:55.079Z,38.73
2022-08-07T08:25:41.943Z,38.46
2022-08-07T08:27:05.910Z,37.24
2022-08-07T08:28:24.133Z,37.20
2022-08-07T08:29:55.512Z,37.98
2022-08-07T08:31:03.059Z,37.69
2022-08-07T08:32:18.672Z,37.99
2022-08-07T08:33:33.370Z,38.14
2022-08-07T08:34:38.148Z,38.15
2022-08-07T08:35:47.238Z,38.25
2022-08-07T08:36:57.607Z,38.19
2022-08-07T08:38:04.848Z,38.34
2022-08-07T08:39:09.553Z,38.83
2022-08-07T08:40:29.910Z,38.89
2022-08-07T08:41:57.556Z,38.65
2022-08-07T08:43:07.282Z,38.22
2022-08-07T08:44:29.695Z,37.64
2022-08-07T08:45:59.066Z,37.94
2022-08-07T08:47:10.052Z,38.51
2022-08-07T08:48:32.589Z,38.39
2022-08-07T08:50:02.413Z,38.20
2022-08-07T08:52:01.099Z,37.86
2022-08-07T08:53:22.895Z,38.22
2022-08-07T08:54:38.666Z,38.05
2022-08-07T08:55:59.460Z,38.00
2022-08-07T08:57:07.421Z,37.95
2022-08-07T08:58:15.687Z,38.34
2022-08-07T08:59:59.129Z,38.51
2022-08-07T09:01:15.361Z,38.84
2022-08-07T09:02:37.968Z,38.89
2022-08-07T09:03:55.221Z,38.80
2022-08-07T09:05:06.428Z,38.83
2022-08-07T09:06:18.568Z,38.29
2022-08-07T09:07:57.993Z,37.25
2022-08-07T09:09:21.152Z,36.97
2022-08-07T09:10:32.982Z,37.07
2022-08-07T09:11:56.726Z,37.04
2022-08-07T09:13:20.276Z,37.42
2022-08-07T09:14:50.693Z,37.38
2022-08-07T09:16:23.252Z,37.45
2022-08-07T09:17:59.698Z,37.62
2022-08-07T09:19:44.806Z,37.15
2022-08-07T09:21:34.470Z,37.56
2022-08-07T09:24:32.117Z,37.14
2022-08-07T09:24:58.632Z,37.76
2022-08-07T09:26:20.656Z,37.85
2022-08-07T09:27:38.396Z,37.59
2022-08-07T09:30:00.678Z,37.36
2022-08-07T09:30:47.631Z,36.95
2022-08-07T09:32:02.405Z,36.67
2022-08-07T09:33:16.624Z,36.63
2022-08-07T09:34:58.004Z,35.99
2022-08-07T09:36:16.011Z,35.89
2022-08-07T09:37:33.402Z,35.84
2022-08-07T09:39:11.296Z,35.78
2022-08-07T09:40:30.348Z,35.49
2022-08-07T09:41:43.531Z,35.20
2022-08-07T09:43:18.941Z,35.01
2022-08-07T09:47:27.299Z,34.69
2022-08-07T09:47:52.191Z,34.30
2022-08-07T09:48:12.309Z,33.79
2022-08-07T09:50:00.852Z,33.79
2022-08-07T09:52:16.638Z,33.50
2022-08-07T09:53:01.760Z,32.85
2022-08-07T09:54:16.448Z,31.54
2022-08-07T09:55:29.265Z,29.74
2022-08-07T09:56:44.154Z,29.30
2022-08-07T09:58:00.434Z,28.73
2022-08-07T09:59:46.109Z,28.79
2022-08-07T10:01:51.596Z,28.86
2022-08-07T10:04:05.252Z,28.66
2022-08-07T10:05:18.782Z,28.84
2022-08-07T10:06:56.963Z,28.88
2022-08-07T10:08:29.061Z,28.77
2022-08-07T10:10:00.375Z,28.85
2022-08-07T10:11:16.573Z,28.47
2022-08-07T10:12:52.557Z,28.71
2022-08-07T10:14:13.990Z,27.98
2022-08-07T10:15:44.538Z,27.52
2022-08-07T10:17:20.425Z,27.28
2022-08-07T10:18:59.565Z,27.38
2022-08-07T10:20:30.332Z,27.60
2022-08-07T10:22:24.867Z,27.91
2022-08-07T10:24:06.964Z,27.85
2022-08-07T10:25:43.267Z,28.07
2022-08-07T10:27:24.726Z,28.18
2022-08-07T10:28:56.246Z,28.50
2022-08-07T10:30:13.540Z,28.91
2022-08-07T10:31:57.667Z,28.71
2022-08-07T10:33:23.601Z,29.12
2022-08-07T10:35:20.488Z,29.22
2022-08-07T10:36:56.855Z,29.63
2022-08-07T10:38:34.944Z,29.52
2022-08-07T10:40:05.661Z,29.28
2022-08-07T10:41:51.790Z,29.64
2022-08-07T10:42:44.993Z,29.90
2022-08-07T10:44:28.813Z,29.91
2022-08-07T10:45:57.968Z,30.27
2022-08-07T10:47:51.440Z,30.44
2022-08-07T10:48:55.804Z,30.31
2022-08-07T10:50:09.075Z,30.68
2022-08-07T10:51:39.071Z,30.71
2022-08-07T10:53:21.630Z,30.50
2022-08-07T10:55:01.370Z,30.86
2022-08-07T10:56:33.567Z,31.04
2022-08-07T10:57:39.901Z,31.26
2022-08-07T10:59:07.632Z,31.45
2022-08-07T11:00:36.936Z,31.48
2022-08-07T11:02:27.226Z,31.69
2022-08-07T11:03:52.642Z,31.74
2022-08-07T11:05:10.732Z,32.01
2022-08-07T11:06:29.795Z,32.04
2022-08-07T11:08:12.982Z,31.88
2022-08-07T11:10:07.747Z,31.94
2022-08-07T11:11:06.171Z,31.65
2022-08-07T11:12:32.234Z,31.80
2022-08-07T11:14:44.810Z,31.84
2022-08-07T11:15:18.074Z,32.14
2022-08-07T11:16:32.121Z,32.17
2022-08-07T11:18:03.702Z,32.33
2022-08-07T11:19:27.238Z,32.53
2022-08-07T11:21:14.121Z,32.36
2022-08-07T11:22:43.932Z,32.38
2022-08-07T11:24:20.900Z,32.52
2022-08-07T11:25:42.467Z,32.52
2022-08-07T11:27:07.597Z,32.53
2022-08-07T11:28:30.205Z,32.69
2022-08-07T11:30:10.031Z,32.55
2022-08-07T11:31:27.278Z,32.48
2022-08-07T11:32:41.123Z,32.65
2022-08-07T11:34:01.226Z,32.69
2022-08-07T11:35:26.757Z,32.84
2022-08-07T11:36:52.444Z,32.81
2022-08-07T11:38:18.075Z,32.56
2022-08-07T11:40:00.504Z,32.56
2022-08-07T11:41:22.263Z,32.47
2022-08-07T11:42:55.220Z,32.42
2022-08-07T11:44:18.996Z,32.50
2022-08-07T11:45:53.953Z,32.44
2022-08-07T11:47:01.966Z,32.55
2022-08-07T11:48:29.762Z,32.47
2022-08-07T11:50:31.610Z,32.58
2022-08-07T11:51:48.380Z,32.45
2022-08-07T11:53:25.414Z,32.42
2022-08-07T11:54:58.757Z,32.33
2022-08-07T11:56:26.965Z,32.41
2022-08-07T11:58:00.043Z,32.45
2022-08-07T12:00:09.999Z,32.45
2022-08-07T12:01:20.150Z,32.41
2022-08-07T12:02:52.522Z,32.44
2022-08-07T12:04:07.628Z,32.44
2022-08-07T12:05:28.767Z,32.47
2022-08-07T12:07:01.105Z,32.38
2022-08-07T12:08:31.438Z,32.01
2022-08-07T12:10:15.009Z,31.86
2022-08-07T12:11:23.943Z,31.47
2022-08-07T12:12:42.989Z,31.33
2022-08-07T12:14:18.997Z,31.20
2022-08-07T12:15:35.896Z,31.02
2022-08-07T12:17:20.413Z,31.29
2022-08-07T12:18:38.563Z,30.75
2022-08-07T12:20:02.753Z,30.84
2022-08-07T12:21:56.005Z,30.81
2022-08-07T12:23:14.726Z,30.72
2022-08-07T12:24:40.169Z,30.11
2022-08-07T12:26:22.811Z,30.19
2022-08-07T12:27:28.095Z,30.18
2022-08-07T12:29:03.947Z,29.86
2022-08-07T12:30:09.202Z,29.52
2022-08-07T12:31:23.584Z,29.72
2022-08-07T12:32:38.300Z,29.74
2022-08-07T12:34:01.153Z,29.82
2022-08-07T12:35:08.345Z,29.19
2022-08-07T12:36:11.885Z,29.41
2022-08-07T12:37:23.558Z,29.19
2022-08-07T12:38:42.629Z,28.97
2022-08-07T12:39:50.851Z,29.14
2022-08-07T12:40:56.139Z,28.91
2022-08-07T12:42:02.546Z,29.05
2022-08-07T12:43:09.268Z,28.61
2022-08-07T12:44:17.097Z,28.72
2022-08-07T12:45:27.214Z,28.64
2022-08-07T12:46:51.976Z,28.64
2022-08-07T12:48:27.712Z,28.86
2022-08-07T12:50:33.713Z,28.62
2022-08-07T12:52:13.785Z,28.55
2022-08-07T12:53:22.129Z,28.40
2022-08-07T12:54:38.170Z,28.47
2022-08-07T12:56:03.311Z,28.57
2022-08-07T12:57:10.112Z,28.44
2022-08-07T12:58:16.407Z,28.40
2022-08-07T12:59:22.589Z,28.13
2022-08-07T13:00:54.346Z,28.03
2022-08-07T13:02:11.476Z,28.15
2022-08-07T13:03:59.123Z,27.93
2022-08-07T13:05:01.567Z,27.80
2022-08-07T13:06:27.045Z,27.69
2022-08-07T13:08:12.215Z,27.70
2022-08-07T13:10:28.283Z,27.31
2022-08-07T13:12:02.476Z,27.63
2022-08-07T13:13:48.874Z,27.84
2022-08-07T13:15:08.060Z,27.47
2022-08-07T13:16:19.032Z,27.61
2022-08-07T13:17:49.745Z,27.30
2022-08-07T13:19:18.069Z,27.05
2022-08-07T13:20:35.417Z,27.08
2022-08-07T13:21:57.463Z,27.16
2022-08-07T13:24:01.057Z,27.17
2022-08-07T13:24:57.065Z,27.00
2022-08-07T13:26:15.987Z,27.10
2022-08-07T13:28:11.390Z,27.20
2022-08-07T13:29:27.394Z,27.07
2022-08-07T13:30:43.966Z,26.88
2022-08-07T13:32:31.611Z,26.90
2022-08-07T13:34:33.141Z,26.71
2022-08-07T13:36:00.403Z,26.92
2022-08-07T13:37:42.131Z,26.66
2022-08-07T13:38:54.361Z,26.88
2022-08-07T13:40:35.676Z,26.89
2022-08-07T13:41:50.804Z,26.64
2022-08-07T13:43:01.722Z,26.78
2022-08-07T13:44:10.394Z,26.93
2022-08-07T13:46:21.529Z,26.84
2022-08-07T13:46:49.482Z,26.52
2022-08-07T13:48:06.033Z,26.42
2022-08-07T13:50:35.276Z,26.44
2022-08-07T13:50:44.213Z,26.62
2022-08-07T13:52:04.694Z,26.33
2022-08-07T13:54:01.000Z,26.38
2022-08-07T13:54:57.588Z,26.16
2022-08-07T13:56:00.251Z,26.34
2022-08-07T13:57:14.460Z,26.41
2022-08-07T13:58:37.262Z,26.60
2022-08-07T13:59:54.907Z,26.33
2022-08-07T14:01:00.096Z,26.48
2022-08-07T14:02:19.519Z,26.59
2022-08-07T14:04:05.562Z,26.36
2022-08-07T14:05:06.564Z,26.66
2022-08-07T14:06:13.720Z,26.67
2022-08-07T14:07:22.924Z,26.79
2022-08-07T14:08:28.139Z,26.79
2022-08-07T14:10:01.325Z,26.63
2022-08-07T14:11:14.648Z,26.69
2022-08-07T14:12:49.434Z,26.79
2022-08-07T14:14:06.966Z,26.85
2022-08-07T14:15:18.666Z,26.81
2022-08-07T14:16:31.168Z,26.76
2022-08-07T14:18:15.989Z,26.74
2022-08-07T14:19:03.239Z,26.61
2022-08-07T14:20:39.812Z,26.79
2022-08-07T14:22:04.008Z,26.51
2022-08-07T14:23:31.749Z,26.52
2022-08-07T14:25:02.004Z,26.39
2022-08-07T14:26:28.195Z,26.32
2022-08-07T14:28:12.452Z,26.40
2022-08-07T14:30:04.955Z,26.40
2022-08-07T14:30:52.047Z,26.50
2022-08-07T14:32:03.545Z,26.23
2022-08-07T14:33:08.387Z,26.27
2022-08-07T14:34:20.281Z,26.27
2022-08-07T14:35:43.037Z,26.42
2022-08-07T14:36:56.437Z,26.11
2022-08-07T14:38:05.910Z,26.17
2022-08-07T14:40:18.192Z,26.20
2022-08-07T14:40:43.009Z,26.29
2022-08-07T14:42:19.524Z,26.31
2022-08-07T14:45:21.625Z,26.18
2022-08-07T14:46:31.169Z,26.12
2022-08-07T14:47:35.016Z,26.11
2022-08-07T14:48:40.835Z,26.08
2022-08-07T14:51:22.493Z,26.19
2022-08-07T14:52:28.848Z,26.02
2022-08-07T14:54:06.596Z,26.05
2022-08-07T14:54:58.736Z,26.10
2022-08-07T14:56:06.152Z,26.04
2022-08-07T14:57:18.663Z,26.16
2022-08-07T14:58:27.516Z,26.07
2022-08-07T15:00:03.300Z,26.06
2022-08-07T15:01:00.381Z,26.01
2022-08-07T15:02:33.220Z,25.95
2022-08-07T15:03:51.418Z,25.94
2022-08-07T15:05:01.823Z,25.85
2022-08-07T15:06:49.091Z,25.80
2022-08-07T15:09:57.285Z,25.95
2022-08-07T15:12:25.658Z,25.88
2022-08-07T15:15:21.131Z,25.64
2022-08-07T15:16:55.221Z,25.77
2022-08-07T15:18:02.878Z,25.70
2022-08-07T15:19:16.787Z,25.65
2022-08-07T15:20:32.823Z,25.70
2022-08-07T15:23:20.164Z,25.80
2022-08-07T15:25:56.305Z,25.72
2022-08-07T15:27:10.088Z,25.67
2022-08-07T15:28:35.103Z,25.83
2022-08-07T15:30:09.685Z,25.81
2022-08-07T15:31:08.575Z,25.92
2022-08-07T15:32:14.952Z,26.02
2022-08-07T15:35:05.556Z,25.67
2022-08-07T15:36:10.258Z,25.69
2022-08-07T15:37:15.802Z,25.70
2022-08-07T15:38:51.391Z,25.55
2022-08-07T15:40:11.291Z,25.60
2022-08-07T15:41:24.051Z,25.56
2022-08-07T15:42:47.583Z,25.51
2022-08-07T15:44:08.529Z,25.46
2022-08-07T15:45:56.752Z,25.51
2022-08-07T15:47:16.945Z,25.50
2022-08-07T15:49:13.209Z,25.51
2022-08-07T15:50:37.613Z,25.43
2022-08-07T15:53:07.977Z,25.40
2022-08-07T15:54:12.981Z,25.37
2022-08-07T15:55:20.351Z,25.30
2022-08-07T15:56:34.880Z,25.22
2022-08-07T15:57:48.882Z,25.14
2022-08-07T15:58:55.373Z,25.14
2022-08-07T15:59:59.526Z,25.20
2022-08-07T16:01:20.064Z,25.18
2022-08-07T16:02:33.854Z,25.19
2022-08-07T16:03:46.152Z,25.12
2022-08-07T16:05:01.067Z,25.14
2022-08-07T16:06:09.470Z,25.04
2022-08-07T16:08:31.925Z,25.08
2022-08-07T16:08:45.471Z,25.06
2022-08-07T16:10:02.860Z,25.07
2022-08-07T16:11:48.697Z,25.03
2022-08-07T16:13:41.784Z,24.88
2022-08-07T16:15:56.398Z,24.82
2022-08-07T16:18:01.578Z,24.84
2022-08-07T16:19:42.424Z,24.75
2022-08-07T16:21:44.492Z,24.80
2022-08-07T16:23:09.927Z,24.71
2022-08-07T16:24:35.542Z,24.72
2022-08-07T16:26:02.072Z,24.68
2022-08-07T16:27:18.610Z,24.75
2022-08-07T16:30:07.581Z,24.70
2022-08-07T16:30:30.599Z,24.71
2022-08-07T16:32:05.354Z,24.74
2022-08-07T16:34:02.679Z,24.76
2022-08-07T16:35:56.880Z,24.72
2022-08-07T16:37:01.859Z,24.72
2022-08-07T16:38:59.983Z,24.79
2022-08-07T16:40:30.574Z,25.00
2022-08-07T16:42:08.775Z,24.80
2022-08-07T16:44:04.285Z,24.71
2022-08-07T16:46:40.967Z,24.64
2022-08-07T16:47:45.479Z,24.52
2022-08-07T16:50:26.726Z,24.57
2022-08-07T16:54:36.375Z,24.57
2022-08-07T16:56:03.665Z,24.54
2022-08-07T16:58:03.242Z,24.52
2022-08-07T16:59:14.723Z,24.45
2022-08-07T17:00:30.208Z,24.36
2022-08-07T17:01:56.652Z,24.46
2022-08-07T17:03:09.308Z,24.46
2022-08-07T17:04:58.067Z,24.43
2022-08-07T17:06:28.927Z,24.47
2022-08-07T17:07:55.937Z,24.53
2022-08-07T17:10:06.764Z,24.46
2022-08-07T17:10:57.847Z,24.46
2022-08-07T17:12:35.594Z,24.46